createdAt,value
2023-05-05T00:00:34.137Z,57199.11
2023-05-05T00:03:04.645Z,57190.64
2023-05-05T00:05:34.932Z,57190.64
2023-05-05T00:08:05.499Z,57251.00
2023-05-05T00:10:35.993Z,57202.29
2023-05-05T00:13:09.700Z,57236.18
2023-05-05T00:15:45.304Z,57203.34
2023-05-05T00:18:17.932Z,57205.46
2023-05-05T00:20:49.049Z,57210.76
2023-05-05T00:23:22.486Z,57200.17
2023-05-05T00:25:52.815Z,57223.46
2023-05-05T00:28:23.395Z,57198.05
2023-05-05T00:30:53.776Z,57227.70
2023-05-05T00:33:24.257Z,57227.70
2023-05-05T00:35:55.896Z,57191.70
2023-05-05T00:38:26.315Z,57203.34
2023-05-05T00:40:56.710Z,57198.05
2023-05-05T00:43:27.155Z,57226.64
2023-05-05T00:46:03.337Z,57225.59
2023-05-05T00:48:34.147Z,57196.99
2023-05-05T00:51:04.756Z,57229.82
2023-05-05T00:53:35.812Z,57217.11
2023-05-05T00:56:07.014Z,57219.23
2023-05-05T00:58:37.640Z,57219.23
2023-05-05T01:01:08.329Z,57219.23
2023-05-05T01:03:40.674Z,57199.11
2023-05-05T01:06:14.237Z,57199.11
2023-05-05T01:09:01.990Z,57220.29
2023-05-05T01:11:53.759Z,57211.82
2023-05-05T01:14:39.101Z,57202.29
2023-05-05T01:17:21.082Z,57205.46
2023-05-05T01:20:21.426Z,57225.59
2023-05-05T01:23:02.375Z,57202.29
2023-05-05T01:25:55.705Z,57192.75
2023-05-05T01:28:49.739Z,57192.75
2023-05-05T01:31:25.630Z,57227.70
2023-05-05T01:34:00.695Z,57210.76
2023-05-05T01:36:36.797Z,57202.29
2023-05-05T01:39:10.787Z,57208.64
2023-05-05T01:41:44.133Z,57208.64
2023-05-05T01:44:16.376Z,57199.11
2023-05-05T01:46:49.062Z,57209.70
2023-05-05T01:49:19.445Z,57213.94
2023-05-05T01:51:55.617Z,57213.94
2023-05-05T01:54:26.859Z,57206.52
2023-05-05T01:56:59.170Z,57192.75
2023-05-05T01:59:30.057Z,57215.00
2023-05-05T02:02:02.530Z,57215.00
2023-05-05T02:04:37.884Z,57188.52
2023-05-05T02:07:10.048Z,57189.58
2023-05-05T02:09:42.711Z,57189.58
2023-05-05T02:12:13.713Z,57202.29
2023-05-05T02:14:45.606Z,57198.05
2023-05-05T02:17:17.417Z,57198.05
2023-05-05T02:19:50.286Z,57170.52
2023-05-05T02:22:20.654Z,57170.52
2023-05-05T02:24:51.011Z,57206.52
2023-05-05T02:27:26.461Z,57205.46
2023-05-05T02:29:59.839Z,57205.46
2023-05-05T02:32:39.709Z,57212.87
2023-05-05T02:35:21.379Z,57207.58
2023-05-05T02:38:00.769Z,57183.22
2023-05-05T02:40:34.848Z,57212.87
2023-05-05T02:43:08.282Z,57206.52
2023-05-05T02:45:39.153Z,57204.41
2023-05-05T02:48:09.668Z,57203.34
2023-05-05T02:50:40.103Z,57193.82
2023-05-05T02:53:10.701Z,57206.52
2023-05-05T02:56:01.800Z,57221.35
2023-05-05T02:58:43.888Z,57211.82
2023-05-05T03:01:38.099Z,57204.41
2023-05-05T03:04:10.967Z,57186.40
2023-05-05T03:06:44.574Z,57204.41
2023-05-05T03:09:26.622Z,57212.87
2023-05-05T03:12:06.378Z,57213.94
2023-05-05T03:14:41.171Z,57213.94
2023-05-05T03:17:17.729Z,57176.87
2023-05-05T03:19:48.965Z,57191.70
2023-05-05T03:22:19.902Z,57206.52
2023-05-05T03:24:53.094Z,57194.88
2023-05-05T03:27:23.486Z,57198.05
2023-05-05T03:29:53.947Z,57198.05
2023-05-05T03:32:26.127Z,57193.82
2023-05-05T03:34:56.683Z,57207.58
2023-05-05T03:37:27.170Z,57207.58
2023-05-05T03:39:57.463Z,57201.23
2023-05-05T03:42:27.834Z,57199.11
2023-05-05T03:44:58.302Z,57191.70
2023-05-05T03:47:28.812Z,57225.59
2023-05-05T03:49:59.269Z,57215.00
2023-05-05T03:52:29.834Z,57215.00
2023-05-05T03:55:03.386Z,57228.76
2023-05-05T03:57:34.462Z,57228.76
2023-05-05T04:00:05.298Z,57221.35
2023-05-05T04:02:35.942Z,57212.87
2023-05-05T04:05:06.315Z,57212.87
2023-05-05T04:07:37.824Z,57206.52
2023-05-05T04:10:09.424Z,57206.52
2023-05-05T04:12:40.547Z,57226.64
2023-05-05T04:15:11.144Z,57233.00
2023-05-05T04:17:42.450Z,57233.00
2023-05-05T04:20:12.716Z,57173.70
2023-05-05T04:22:43.635Z,57220.29
2023-05-05T04:25:14.097Z,57215.00
2023-05-05T04:27:45.317Z,57215.00
2023-05-05T04:30:15.698Z,57202.29
2023-05-05T04:32:46.365Z,57206.52
2023-05-05T04:35:17.404Z,57206.52
2023-05-05T04:37:47.849Z,57183.22
2023-05-05T04:40:18.176Z,57183.22
2023-05-05T04:42:48.704Z,57226.64
2023-05-05T04:45:19.032Z,57251.00
2023-05-05T04:47:49.551Z,57222.41
2023-05-05T04:50:20.105Z,57248.88
2023-05-05T04:52:52.043Z,57248.88
2023-05-05T04:55:22.360Z,57244.65
2023-05-05T04:57:52.832Z,57239.35
2023-05-05T05:00:23.369Z,57246.77
2023-05-05T05:02:53.775Z,57248.88
2023-05-05T05:05:24.187Z,57224.53
2023-05-05T05:07:54.700Z,57254.18
2023-05-05T05:10:25.200Z,57219.23
2023-05-05T05:12:55.912Z,57245.71
2023-05-05T05:15:26.400Z,57230.88
2023-05-05T05:17:56.974Z,57230.88
2023-05-05T05:20:27.367Z,57241.47
2023-05-05T05:23:00.984Z,57241.47
2023-05-05T05:25:31.876Z,57229.82
2023-05-05T05:28:10.191Z,57246.77
2023-05-05T05:30:34.959Z,57255.24
2023-05-05T05:33:08.831Z,57264.77
2023-05-05T05:35:39.242Z,57264.77
2023-05-05T05:38:09.541Z,57251.00
2023-05-05T05:40:41.438Z,57251.00
2023-05-05T05:43:11.749Z,57261.59
2023-05-05T05:45:42.374Z,57274.30
2023-05-05T05:48:16.252Z,57274.30
2023-05-05T05:50:48.268Z,57261.59
2023-05-05T05:53:18.627Z,57256.30
2023-05-05T05:55:49.264Z,57278.54
2023-05-05T05:58:19.681Z,57293.36
2023-05-05T06:01:01.504Z,57305.01
2023-05-05T06:03:32.009Z,57307.13
2023-05-05T06:06:02.604Z,57307.13
2023-05-05T06:08:33.412Z,57316.66
2023-05-05T06:11:08.225Z,57314.55
2023-05-05T06:13:39.072Z,57352.67
2023-05-05T06:16:12.058Z,57373.85
2023-05-05T06:18:42.647Z,57352.67
2023-05-05T06:21:14.712Z,57352.67
2023-05-05T06:23:47.538Z,57353.73
2023-05-05T06:26:19.613Z,57343.14
2023-05-05T06:28:55.996Z,57401.39
2023-05-05T06:31:36.234Z,57426.80
2023-05-05T06:34:13.319Z,57439.52
2023-05-05T06:36:43.904Z,57439.52
2023-05-05T06:39:17.938Z,57460.70
2023-05-05T06:41:48.599Z,57440.57
2023-05-05T06:44:22.314Z,57478.70
2023-05-05T06:46:55.394Z,57478.70
2023-05-05T06:49:25.959Z,57486.12
2023-05-05T06:51:56.399Z,57486.12
2023-05-05T06:54:27.224Z,57522.12
2023-05-05T06:57:00.094Z,57536.95
2023-05-05T06:59:31.377Z,57514.71
2023-05-05T07:02:02.271Z,57562.37
2023-05-05T07:04:40.736Z,57562.37
2023-05-05T07:07:12.939Z,57564.49
2023-05-05T07:09:43.313Z,57546.48
2023-05-05T07:12:25.373Z,57585.67
2023-05-05T07:14:55.772Z,57556.02
2023-05-05T07:17:26.889Z,57556.02
2023-05-05T07:20:04.505Z,57542.25
2023-05-05T07:22:36.807Z,57534.84
2023-05-05T07:25:11.922Z,57535.89
2023-05-05T07:27:44.941Z,57564.49
2023-05-05T07:30:19.328Z,57564.49
2023-05-05T07:32:51.511Z,57679.94
2023-05-05T07:35:23.122Z,57689.47
2023-05-05T07:37:54.705Z,57634.39
2023-05-05T07:40:25.262Z,57639.69
2023-05-05T07:42:55.662Z,57690.53
2023-05-05T07:45:26.098Z,57763.61
2023-05-05T07:47:56.627Z,57661.93
2023-05-05T07:50:28.500Z,57751.96
2023-05-05T07:53:13.908Z,57678.88
2023-05-05T07:55:30.932Z,57771.03
2023-05-05T07:58:01.390Z,57742.43
2023-05-05T08:00:32.117Z,57704.30
2023-05-05T08:03:12.142Z,57740.31
2023-05-05T08:05:46.663Z,57643.93
2023-05-05T08:08:17.180Z,57772.09
2023-05-05T08:10:47.833Z,57771.03
2023-05-05T08:13:18.677Z,57805.98
2023-05-05T08:15:49.199Z,57838.82
2023-05-05T08:18:19.916Z,57838.82
2023-05-05T08:20:50.934Z,57715.95
2023-05-05T08:23:23.098Z,57825.05
2023-05-05T08:25:53.846Z,57815.51
2023-05-05T08:28:24.238Z,57815.51
2023-05-05T08:30:54.812Z,57821.87
2023-05-05T08:33:27.020Z,57792.21
2023-05-05T08:35:57.520Z,57792.21
2023-05-05T08:38:28.108Z,57796.45
2023-05-05T08:41:04.378Z,57813.39
2023-05-05T08:43:36.275Z,57813.39
2023-05-05T08:46:09.124Z,57904.49
2023-05-05T08:48:42.750Z,57844.11
2023-05-05T08:51:20.424Z,57881.19
2023-05-05T08:54:03.138Z,57820.81
2023-05-05T08:56:36.866Z,57820.81
2023-05-05T08:59:08.733Z,57864.24
2023-05-05T09:01:40.925Z,57870.59
2023-05-05T09:04:11.906Z,57870.59
2023-05-05T09:06:45.562Z,57858.94
2023-05-05T09:09:16.145Z,57992.41
2023-05-05T09:11:47.008Z,57978.64
2023-05-05T09:14:17.379Z,57884.36
2023-05-05T09:16:47.653Z,57886.48
2023-05-05T09:19:21.073Z,57945.80
2023-05-05T09:21:52.897Z,57945.80
2023-05-05T09:24:23.489Z,57908.73
2023-05-05T09:26:53.856Z,57900.25
2023-05-05T09:29:26.433Z,57900.25
2023-05-05T09:32:04.709Z,57972.28
2023-05-05T09:34:35.916Z,57936.27
2023-05-05T09:37:06.474Z,57936.27
2023-05-05T09:39:36.978Z,57974.40
2023-05-05T09:42:08.746Z,57974.40
2023-05-05T09:44:48.156Z,57793.27
2023-05-05T09:47:29.561Z,57890.72
2023-05-05T09:50:01.801Z,57890.72
2023-05-05T09:52:40.691Z,57901.31
2023-05-05T09:55:21.932Z,57870.59
2023-05-05T09:57:53.881Z,57879.07
2023-05-05T10:00:28.152Z,57944.74
2023-05-05T10:03:03.129Z,57871.65
2023-05-05T10:05:37.697Z,58024.18
2023-05-05T10:08:18.456Z,58024.18
2023-05-05T10:10:53.076Z,57890.72
2023-05-05T10:13:25.198Z,57890.72
2023-05-05T10:15:57.484Z,57888.60
2023-05-05T10:18:30.658Z,57888.60
2023-05-05T10:21:03.965Z,57940.50
2023-05-05T10:23:42.992Z,57933.09
2023-05-05T10:26:18.445Z,58102.57
2023-05-05T10:28:58.670Z,58022.07
2023-05-05T10:31:32.030Z,58022.07
2023-05-05T10:34:08.469Z,57909.79
2023-05-05T10:36:39.340Z,58027.36
2023-05-05T10:39:20.238Z,57994.52
2023-05-05T10:41:51.912Z,58013.59
2023-05-05T10:44:24.123Z,57869.54
2023-05-05T10:46:54.689Z,57857.88
2023-05-05T10:49:46.151Z,57902.37
2023-05-05T10:52:39.143Z,57880.12
2023-05-05T10:55:22.901Z,57880.12
2023-05-05T10:57:56.015Z,57952.16
2023-05-05T11:00:43.857Z,58033.72
2023-05-05T11:03:20.005Z,58033.72
2023-05-05T11:06:09.889Z,57970.16
2023-05-05T11:08:45.102Z,57907.67
2023-05-05T11:11:15.389Z,57879.07
2023-05-05T11:13:47.578Z,57883.30
2023-05-05T11:16:44.590Z,57898.13
2023-05-05T11:19:49.258Z,57880.12
2023-05-05T11:22:21.416Z,57867.41
2023-05-05T11:24:51.880Z,57932.03
2023-05-05T11:27:22.197Z,58011.47
2023-05-05T11:30:07.593Z,58011.47
2023-05-05T11:32:40.536Z,58035.84
2023-05-05T11:35:10.996Z,58028.42
2023-05-05T11:37:43.732Z,57969.10
2023-05-05T11:40:22.937Z,57977.57
2023-05-05T11:43:06.562Z,57966.98
2023-05-05T11:45:42.570Z,57890.72
2023-05-05T11:48:25.974Z,57963.80
2023-05-05T11:50:59.144Z,57963.80
2023-05-05T11:53:31.181Z,57810.21
2023-05-05T11:56:13.090Z,57899.19
2023-05-05T11:58:46.961Z,58044.31
2023-05-05T12:01:17.433Z,58044.31
2023-05-05T12:03:48.055Z,58083.50
2023-05-05T12:09:23.034Z,57988.17
2023-05-05T12:11:58.576Z,58064.44
2023-05-05T12:14:29.106Z,57909.79
2023-05-05T12:17:02.649Z,57935.21
2023-05-05T12:19:36.831Z,57926.73
2023-05-05T12:22:10.377Z,57870.59
2023-05-05T12:24:43.885Z,57870.59
2023-05-05T12:27:14.267Z,58010.41
2023-05-05T12:29:44.745Z,58023.12
2023-05-05T12:32:33.905Z,57932.03
2023-05-05T12:35:06.776Z,57820.81
2023-05-05T12:37:37.313Z,57742.43
2023-05-05T12:40:08.404Z,57733.96
2023-05-05T12:42:42.954Z,57733.96
2023-05-05T12:45:19.376Z,57681.00
2023-05-05T12:47:51.657Z,57667.23
2023-05-05T12:50:46.408Z,57667.23
2023-05-05T12:53:24.572Z,57757.26
2023-05-05T12:55:54.976Z,57888.60
2023-05-05T12:58:25.271Z,57851.53
2023-05-05T13:01:11.334Z,57851.53
2023-05-05T13:03:41.799Z,57737.13
2023-05-05T13:06:23.379Z,57704.30
2023-05-05T13:08:59.490Z,57638.63
2023-05-05T13:11:29.938Z,57597.32
2023-05-05T13:14:02.118Z,57621.68
2023-05-05T13:16:32.951Z,57587.79
2023-05-05T13:19:03.537Z,57587.79
2023-05-05T13:21:34.079Z,57600.50
2023-05-05T13:24:18.938Z,57618.50
2023-05-05T13:26:42.020Z,57603.68
2023-05-05T13:29:19.442Z,57603.68
2023-05-05T13:31:52.741Z,57606.86
2023-05-05T13:34:26.404Z,57606.86
2023-05-05T13:36:57.142Z,57692.65
2023-05-05T13:39:27.694Z,57761.49
2023-05-05T13:41:58.420Z,57761.49
2023-05-05T13:44:33.592Z,57800.68
2023-05-05T13:47:07.016Z,57829.29
2023-05-05T13:49:37.290Z,57839.87
2023-05-05T13:52:07.567Z,57774.20
2023-05-05T13:54:38.502Z,57766.79
2023-05-05T13:57:08.995Z,57766.79
2023-05-05T13:59:39.371Z,57707.48
2023-05-05T14:02:13.970Z,57756.20
2023-05-05T14:04:44.724Z,57755.14
2023-05-05T14:07:15.774Z,57795.39
2023-05-05T14:09:46.031Z,57738.19
2023-05-05T14:12:18.759Z,57728.66
2023-05-05T14:14:52.192Z,57721.25
2023-05-05T14:17:32.216Z,57721.25
2023-05-05T14:20:05.308Z,57626.98
2023-05-05T14:22:36.947Z,57626.98
2023-05-05T14:25:09.807Z,57619.57
2023-05-05T14:27:40.825Z,57631.22
2023-05-05T14:30:11.630Z,57608.98
2023-05-05T14:32:43.626Z,57623.80
2023-05-05T14:35:14.164Z,57602.62
2023-05-05T14:37:53.067Z,57607.91
2023-05-05T14:40:26.074Z,57607.91
2023-05-05T14:42:58.374Z,57624.86
2023-05-05T14:45:29.008Z,57625.92
2023-05-05T14:47:59.584Z,57605.80
2023-05-05T14:50:33.224Z,57566.61
2023-05-05T14:53:03.737Z,57566.61
2023-05-05T14:55:39.737Z,57558.13
2023-05-05T14:58:13.957Z,57534.84
2023-05-05T15:00:49.687Z,57534.84
2023-05-05T15:03:20.666Z,57545.43
2023-05-05T15:05:54.165Z,57546.48
2023-05-05T15:08:26.390Z,57546.48
2023-05-05T15:10:56.872Z,57540.13
2023-05-05T15:13:30.485Z,57540.13
2023-05-05T15:16:08.161Z,57535.89
2023-05-05T15:18:39.454Z,57535.89
2023-05-05T15:21:15.603Z,57542.25
2023-05-05T15:23:46.141Z,57515.77
2023-05-05T15:26:19.492Z,57520.01
2023-05-05T15:28:53.921Z,57520.01
2023-05-05T15:31:24.617Z,57510.48
2023-05-05T15:37:08.416Z,57532.72
2023-05-05T15:39:40.543Z,57517.89
2023-05-05T15:42:14.946Z,57486.12
2023-05-05T15:44:49.112Z,57486.12
2023-05-05T15:47:33.800Z,57503.06
2023-05-05T15:50:10.511Z,57475.52
2023-05-05T15:52:48.143Z,57503.06
2023-05-05T15:55:31.580Z,57482.94
2023-05-05T15:58:05.114Z,57482.94
2023-05-05T16:00:37.558Z,57478.70
2023-05-05T16:03:19.901Z,57488.23
2023-05-05T16:05:51.861Z,57488.23
2023-05-05T16:08:22.758Z,57463.87
2023-05-05T16:10:56.724Z,57455.40
2023-05-05T16:13:43.237Z,57441.63
2023-05-05T16:16:19.639Z,57435.28
2023-05-05T16:18:50.134Z,57443.75
2023-05-05T16:21:22.676Z,57443.75
2023-05-05T16:23:59.209Z,57415.16
2023-05-05T16:26:31.402Z,57399.27
2023-05-05T16:29:07.613Z,57393.98
2023-05-05T16:31:39.697Z,57411.98
2023-05-05T16:34:12.176Z,57386.56
2023-05-05T16:36:50.588Z,57401.39
2023-05-05T16:39:25.621Z,57401.39
2023-05-05T16:41:56.207Z,57386.56
2023-05-05T16:44:35.624Z,57403.51
2023-05-05T16:47:08.212Z,57359.03
2023-05-05T16:49:38.854Z,57359.03
2023-05-05T16:52:09.818Z,57354.79
2023-05-05T16:54:40.415Z,57365.38
2023-05-05T16:57:12.391Z,57353.73
2023-05-05T16:59:44.408Z,57355.85
2023-05-05T17:02:16.407Z,57350.55
2023-05-05T17:04:47.646Z,57336.79
2023-05-05T17:07:21.267Z,57334.67
2023-05-05T17:10:03.830Z,57361.14
2023-05-05T17:12:38.396Z,57361.14
2023-05-05T17:15:09.971Z,57356.91
2023-05-05T17:17:44.916Z,57356.91
2023-05-05T17:20:17.258Z,57335.73
2023-05-05T17:22:49.295Z,57346.32
2023-05-05T17:25:23.543Z,57343.14
2023-05-05T17:27:56.369Z,57343.14
2023-05-05T17:30:28.714Z,57359.03
2023-05-05T17:32:59.391Z,57353.73
2023-05-05T17:35:30.185Z,57319.84
2023-05-05T17:38:01.020Z,57319.84
2023-05-05T17:40:31.617Z,57367.50
2023-05-05T17:43:10.236Z,57338.90
2023-05-05T17:45:48.521Z,57314.55
2023-05-05T17:48:19.644Z,57329.37
2023-05-05T17:50:50.456Z,57329.37
2023-05-05T17:53:21.054Z,57338.90
2023-05-05T17:55:51.534Z,57312.43
2023-05-05T17:58:22.102Z,57312.43
2023-05-05T18:00:52.715Z,57336.79
2023-05-05T18:03:23.220Z,57301.84
2023-05-05T18:05:54.050Z,57301.84
2023-05-05T18:08:24.552Z,57300.78
2023-05-05T18:10:55.230Z,57333.61
2023-05-05T18:13:25.725Z,57333.61
2023-05-05T18:15:58.261Z,57312.43
2023-05-05T18:18:29.626Z,57312.43
2023-05-05T18:21:00.158Z,57336.79
2023-05-05T18:23:32.101Z,57315.61
2023-05-05T18:26:08.394Z,57305.01
2023-05-05T18:28:41.066Z,57295.48
2023-05-05T18:31:29.110Z,57295.48
2023-05-05T18:33:59.648Z,57318.78
2023-05-05T18:36:30.010Z,57330.43
2023-05-05T18:39:00.597Z,57307.13
2023-05-05T18:41:31.444Z,57289.13
2023-05-05T18:44:02.226Z,57285.95
2023-05-05T18:46:34.338Z,57276.42
2023-05-05T18:49:07.628Z,57298.66
2023-05-05T18:51:38.440Z,57271.13
2023-05-05T18:54:09.049Z,57285.95
2023-05-05T18:56:39.684Z,57284.89
2023-05-05T18:59:11.739Z,57284.89
2023-05-05T19:01:44.660Z,57265.83
2023-05-05T19:04:29.422Z,57265.83
2023-05-05T19:06:47.903Z,57273.24
2023-05-05T19:09:21.745Z,57273.24
2023-05-05T19:11:55.375Z,57282.77
2023-05-05T19:14:30.286Z,57257.36
2023-05-05T19:17:05.441Z,57257.36
2023-05-05T19:19:42.980Z,57299.72
2023-05-05T19:22:13.091Z,57278.54
2023-05-05T19:24:45.392Z,57278.54
2023-05-05T19:27:17.283Z,57269.00
2023-05-05T19:29:48.178Z,57237.23
2023-05-05T19:32:22.991Z,57237.23
2023-05-05T19:34:58.368Z,57274.30
2023-05-05T19:37:39.791Z,57269.00
2023-05-05T19:40:13.924Z,57256.30
2023-05-05T19:42:46.491Z,57263.71
2023-05-05T19:45:18.535Z,57263.71
2023-05-05T19:47:51.460Z,57269.00
2023-05-05T19:50:36.568Z,57257.36
2023-05-05T19:53:07.092Z,57241.47
2023-05-05T19:55:41.715Z,57241.47
2023-05-05T19:58:14.332Z,57275.36
2023-05-05T20:03:46.617Z,57275.36
2023-05-05T20:06:19.408Z,57246.77
2023-05-05T20:08:51.970Z,57246.77
2023-05-05T20:11:23.322Z,57265.83
2023-05-05T20:14:00.147Z,57253.12
2023-05-05T20:16:29.335Z,57237.23
2023-05-05T20:19:12.758Z,57223.46
2023-05-05T20:21:36.998Z,57223.46
2023-05-05T20:24:13.090Z,57226.64
2023-05-05T20:26:40.450Z,57264.77
2023-05-05T20:29:13.699Z,57264.77
2023-05-05T20:31:56.120Z,57249.95
2023-05-05T20:34:30.213Z,57227.70
2023-05-05T20:40:16.137Z,57237.23
2023-05-05T20:42:46.812Z,57235.12
2023-05-05T20:45:17.511Z,57235.12
2023-05-05T20:48:10.756Z,57243.59
2023-05-05T20:50:41.415Z,57223.46
2023-05-05T20:53:13.428Z,57223.46
2023-05-05T20:55:57.651Z,57220.29
2023-05-05T20:58:28.163Z,57245.71
2023-05-05T21:01:02.700Z,57245.71
2023-05-05T21:03:35.735Z,57219.23
2023-05-05T21:06:55.314Z,57228.76
2023-05-05T21:11:45.665Z,56088.38
2023-05-05T21:14:16.669Z,57246.77
2023-05-05T21:17:05.374Z,57206.52
2023-05-05T21:19:44.401Z,57230.88
2023-05-05T21:22:14.740Z,57218.17
2023-05-05T21:24:45.593Z,57218.17
2023-05-05T21:27:17.332Z,57224.53
2023-05-05T21:29:53.318Z,57211.82
2023-05-05T21:32:27.010Z,57211.82
2023-05-05T21:34:57.273Z,57224.53
2023-05-05T21:37:28.885Z,57224.53
2023-05-05T21:39:59.344Z,57227.70
2023-05-05T21:42:31.539Z,57216.05
2023-05-05T21:45:05.053Z,57216.05
2023-05-05T21:47:38.322Z,57213.94
2023-05-05T21:50:12.326Z,57213.94
2023-05-05T21:52:43.121Z,57203.34
2023-05-05T21:55:13.515Z,57235.12
2023-05-05T21:57:49.449Z,57234.06
2023-05-05T22:00:21.746Z,57217.11
2023-05-05T22:02:52.308Z,57217.11
2023-05-05T22:05:26.033Z,57226.64
2023-05-05T22:07:56.548Z,57198.05
2023-05-05T22:10:27.045Z,57181.11
2023-05-05T22:12:57.500Z,57223.46
2023-05-05T22:15:32.808Z,57224.53
2023-05-05T22:17:59.936Z,57206.52
2023-05-05T22:20:31.244Z,57206.52
2023-05-05T22:23:01.900Z,57263.71
2023-05-05T22:25:32.444Z,57189.58
2023-05-05T22:28:02.957Z,57189.58
2023-05-05T22:30:33.755Z,57217.11
2023-05-05T22:33:04.368Z,57217.11
2023-05-05T22:35:35.660Z,57198.05
2023-05-05T22:38:06.122Z,57212.87
2023-05-05T22:40:39.609Z,57211.82
2023-05-05T22:43:10.163Z,57193.82
2023-05-05T22:45:41.401Z,57225.59
2023-05-05T22:48:17.874Z,57225.59
2023-05-05T22:50:48.886Z,57211.82
2023-05-05T22:53:19.397Z,57205.46
2023-05-05T22:55:49.807Z,57205.46
2023-05-05T22:58:20.473Z,57221.35
2023-05-05T23:00:50.726Z,57221.35
2023-05-05T23:03:21.386Z,57183.22
2023-05-05T23:05:51.777Z,57201.23
2023-05-05T23:08:22.387Z,57183.22
2023-05-05T23:10:53.282Z,57205.46
2023-05-05T23:13:23.775Z,57183.22
2023-05-05T23:15:54.206Z,57239.35
2023-05-05T23:18:24.703Z,57239.35
2023-05-05T23:20:55.180Z,57202.29
2023-05-05T23:23:25.746Z,57205.46
2023-05-05T23:25:57.486Z,57205.46
2023-05-05T23:28:37.805Z,57199.11
2023-05-05T23:31:04.851Z,57215.00
2023-05-05T23:33:39.985Z,57245.71
2023-05-05T23:36:17.102Z,57245.71
2023-05-05T23:38:48.695Z,57201.23
2023-05-05T23:41:19.049Z,57216.05
2023-05-05T23:43:49.609Z,57216.05
2023-05-05T23:46:19.985Z,57212.87
2023-05-05T23:48:51.253Z,57212.87
2023-05-05T23:51:21.650Z,57198.05
2023-05-05T23:53:52.561Z,57205.46
2023-05-05T23:56:23.358Z,57189.58
2023-05-05T23:58:54.101Z,57189.58
